Svartfoss — V2PR3 — position and weather

sailwx.info

Track history (hours):
 
Tides and Currents Weather Stations Pressure Air Temp Water Temp Dewpoint Dewpoint Depression Visibility Wind Speed Wind Dir Waves Ship Positions

Svartfoss

Last reported at 2014-Sep-20 22:21 UTC. Time now 2014-Sep-21 12:09 UTC.
Position N 58°04' E 005°56'.

Length 80 m; draft 5.2 m.

Type: Cargo ship. MMSI: 304882000.

Date/timePositionNaut miles runAvg speedWind from/ knotsBaromVisibWave heightAir tempDewpointWater temp
2014-Sep-20 22:21N 58°04' E 005°56'1113.7
2014-Sep-20 21:33N 58°15' E 005°58'1111.4
2014-Sep-20 20:33N 58°26' E 005°59'0 0.0
2014-Sep-20 19:33N 58°26' E 005°59'0 0.0
2014-Sep-20 18:34N 58°26' E 005°59'0 0.0
2014-Sep-20 17:33N 58°26' E 005°59'0 0.0
2014-Sep-20 16:33N 58°26' E 005°59'0 0.4
2014-Sep-20 15:33N 58°26' E 005°59'8 8.1
2014-Sep-20 14:33N 58°28' E 005°44'2114.3
2014-Sep-20 13:05N 58°46' E 005°22'714.3
2014-Sep-20 12:34N 58°53' E 005°20'1414.2
2014-Sep-20 11:33N 59°08' E 005°20'1413.8
2014-Sep-20 10:33N 59°21' E 005°19'  
2014-Sep-17 16:20N 63°60' E 009°57'5112.8
2014-Sep-17 12:24N 64°43' E 010°56'1113.4
2014-Sep-17 11:33N 64°52' E 011°14'1211.9
2014-Sep-17 10:33N 64°59' E 011°36'1514.1
2014-Sep-17 09:30N 65°12' E 011°53'1612.3
2014-Sep-17 08:13N 65°28' E 011°58'3914.2
2014-Sep-17 05:26N 66°04' E 012°38'1514.3
2014-Sep-17 04:25N 66°17' E 012°55'1314.4
2014-Sep-17 03:30N 66°30' E 012°59'2713.5
2014-Sep-17 01:29N 66°54' E 013°27'198 6.2
2014-Sep-15 17:33N 69°33' E 018°44'8 7.8
2014-Sep-15 16:33N 69°39' E 018°58'0 0.0
2014-Sep-15 15:33N 69°39' E 018°58'0 0.0
2014-Sep-15 14:33N 69°39' E 018°58'0 0.0
2014-Sep-15 13:33N 69°39' E 018°58'0 0.0
2014-Sep-15 12:33N 69°39' E 018°58'0 0.0
2014-Sep-15 11:33N 69°39' E 018°58'2 1.9
2014-Sep-15 10:33N 69°38' E 018°57'0 0.0
2014-Sep-15 09:33N 69°38' E 018°57'0 0.0
2014-Sep-15 08:33N 69°38' E 018°57'0 0.0
2014-Sep-15 07:33N 69°38' E 018°57'0 0.0
2014-Sep-15 06:33N 69°38' E 018°57'0 0.0
2014-Sep-15 05:33N 69°38' E 018°57'0 0.0
2014-Sep-15 04:33N 69°38' E 018°57'0 0.0
2014-Sep-15 03:33N 69°38' E 018°57'0 0.0
2014-Sep-15 02:33N 69°38' E 018°57'0 0.0
2014-Sep-15 01:33N 69°38' E 018°57'0 0.0
2014-Sep-15 00:33N 69°38' E 018°57'0 0.0
2014-Sep-14 23:33N 69°38' E 018°57'0 0.0
2014-Sep-14 22:33N 69°38' E 018°57'0 0.0
2014-Sep-14 21:33N 69°38' E 018°57'0 0.0
2014-Sep-14 20:33N 69°38' E 018°57'0 0.0
2014-Sep-14 19:33N 69°38' E 018°57'0 0.0
2014-Sep-14 18:33N 69°38' E 018°57'0 0.0
2014-Sep-14 17:33N 69°38' E 018°57'0 0.0
2014-Sep-14 16:33N 69°38' E 018°57'0 0.0
2014-Sep-14 15:33N 69°38' E 018°57'0 0.0
2014-Sep-14 14:34N 69°38' E 018°57'0 0.0
2014-Sep-14 13:33N 69°38' E 018°57'0 0.0
2014-Sep-14 12:33N 69°38' E 018°57'0 0.0
2014-Sep-14 11:33N 69°38' E 018°57'0 0.0
2014-Sep-14 10:33N 69°38' E 018°57'0 0.0
2014-Sep-14 09:33N 69°38' E 018°57'0 0.0
2014-Sep-14 08:33N 69°38' E 018°57'0 0.0
2014-Sep-14 07:33N 69°38' E 018°57'0 0.0
2014-Sep-14 06:33N 69°38' E 018°57'0 0.0
2014-Sep-14 05:33N 69°38' E 018°57'5 4.9
2014-Sep-14 04:34N 69°42' E 019°02'  
Track history (hours):
 
Tides and Currents Weather Stations Pressure Air Temp Water Temp Dewpoint Dewpoint Depression Visibility Wind Speed Wind Dir Waves Ship Positions

Svartfoss

Last reported at 2014-Sep-20 22:21 UTC. Time now 2014-Sep-21 12:09 UTC.
Position N 58°04' E 005°56'.

Length 80 m; draft 5.2 m.

Type: Cargo ship. MMSI: 304882000.

Date/timePositionNaut miles runAvg speedWind from/ knotsBaromVisibWave heightAir tempDewpointWater temp
2014-Sep-20 22:21N 58°04' E 005°56'1113.7
2014-Sep-20 21:33N 58°15' E 005°58'1111.4
2014-Sep-20 20:33N 58°26' E 005°59'0 0.0
2014-Sep-20 19:33N 58°26' E 005°59'0 0.0
2014-Sep-20 18:34N 58°26' E 005°59'0 0.0
2014-Sep-20 17:33N 58°26' E 005°59'0 0.0
2014-Sep-20 16:33N 58°26' E 005°59'0 0.4
2014-Sep-20 15:33N 58°26' E 005°59'8 8.1
2014-Sep-20 14:33N 58°28' E 005°44'2114.3
2014-Sep-20 13:05N 58°46' E 005°22'714.3
2014-Sep-20 12:34N 58°53' E 005°20'1414.2
2014-Sep-20 11:33N 59°08' E 005°20'1413.8
2014-Sep-20 10:33N 59°21' E 005°19'  
2014-Sep-17 16:20N 63°60' E 009°57'5112.8
2014-Sep-17 12:24N 64°43' E 010°56'1113.4
2014-Sep-17 11:33N 64°52' E 011°14'1211.9
2014-Sep-17 10:33N 64°59' E 011°36'1514.1
2014-Sep-17 09:30N 65°12' E 011°53'1612.3
2014-Sep-17 08:13N 65°28' E 011°58'3914.2
2014-Sep-17 05:26N 66°04' E 012°38'1514.3
2014-Sep-17 04:25N 66°17' E 012°55'1314.4
2014-Sep-17 03:30N 66°30' E 012°59'2713.5
2014-Sep-17 01:29N 66°54' E 013°27'198 6.2
2014-Sep-15 17:33N 69°33' E 018°44'8 7.8
2014-Sep-15 16:33N 69°39' E 018°58'0 0.0
2014-Sep-15 15:33N 69°39' E 018°58'0 0.0
2014-Sep-15 14:33N 69°39' E 018°58'0 0.0
2014-Sep-15 13:33N 69°39' E 018°58'0 0.0
2014-Sep-15 12:33N 69°39' E 018°58'0 0.0
2014-Sep-15 11:33N 69°39' E 018°58'2 1.9
2014-Sep-15 10:33N 69°38' E 018°57'0 0.0
2014-Sep-15 09:33N 69°38' E 018°57'0 0.0
2014-Sep-15 08:33N 69°38' E 018°57'0 0.0
2014-Sep-15 07:33N 69°38' E 018°57'0 0.0
2014-Sep-15 06:33N 69°38' E 018°57'0 0.0
2014-Sep-15 05:33N 69°38' E 018°57'0 0.0
2014-Sep-15 04:33N 69°38' E 018°57'0 0.0
2014-Sep-15 03:33N 69°38' E 018°57'0 0.0
2014-Sep-15 02:33N 69°38' E 018°57'0 0.0
2014-Sep-15 01:33N 69°38' E 018°57'0 0.0
2014-Sep-15 00:33N 69°38' E 018°57'0 0.0
2014-Sep-14 23:33N 69°38' E 018°57'0 0.0
2014-Sep-14 22:33N 69°38' E 018°57'0 0.0
2014-Sep-14 21:33N 69°38' E 018°57'0 0.0
2014-Sep-14 20:33N 69°38' E 018°57'0 0.0
2014-Sep-14 19:33N 69°38' E 018°57'0 0.0
2014-Sep-14 18:33N 69°38' E 018°57'0 0.0
2014-Sep-14 17:33N 69°38' E 018°57'0 0.0
2014-Sep-14 16:33N 69°38' E 018°57'0 0.0
2014-Sep-14 15:33N 69°38' E 018°57'0 0.0
2014-Sep-14 14:34N 69°38' E 018°57'0 0.0
2014-Sep-14 13:33N 69°38' E 018°57'0 0.0
2014-Sep-14 12:33N 69°38' E 018°57'0 0.0
2014-Sep-14 11:33N 69°38' E 018°57'0 0.0
2014-Sep-14 10:33N 69°38' E 018°57'0 0.0
2014-Sep-14 09:33N 69°38' E 018°57'0 0.0
2014-Sep-14 08:33N 69°38' E 018°57'0 0.0
2014-Sep-14 07:33N 69°38' E 018°57'0 0.0
2014-Sep-14 06:33N 69°38' E 018°57'0 0.0
2014-Sep-14 05:33N 69°38' E 018°57'5 4.9
2014-Sep-14 04:34N 69°42' E 019°02'  

Dump ship's entire track history